sensor_id;sensor_type;location;lat;lon;timestamp;P1;durP1;ratioP1;P2;durP2;ratioP2
67195;SDS011;54122;53.538;49.366;2023-03-01T00:01:31;19.02;;;10.45;;
67195;SDS011;54122;53.538;49.366;2023-03-01T00:03:58;24.92;;;12.23;;
67195;SDS011;54122;53.538;49.366;2023-03-01T00:06:26;22.63;;;11.23;;
67195;SDS011;54122;53.538;49.366;2023-03-01T00:08:53;16.35;;;7.85;;
67195;SDS011;54122;53.538;49.366;2023-03-01T00:11:26;21.33;;;10.90;;
67195;SDS011;54122;53.538;49.366;2023-03-01T00:13:55;24.98;;;12.82;;
67195;SDS011;54122;53.538;49.366;2023-03-01T00:16:25;29.33;;;12.50;;
67195;SDS011;54122;53.538;49.366;2023-03-01T00:18:56;20.75;;;10.75;;
67195;SDS011;54122;53.538;49.366;2023-03-01T00:21:23;18.25;;;9.75;;
67195;SDS011;54122;53.538;49.366;2023-03-01T00:23:50;22.10;;;10.65;;
67195;SDS011;54122;53.538;49.366;2023-03-01T00:26:17;19.58;;;9.40;;
67195;SDS011;54122;53.538;49.366;2023-03-01T00:28:45;23.83;;;10.93;;
67195;SDS011;54122;53.538;49.366;2023-03-01T00:31:13;19.13;;;10.60;;
67195;SDS011;54122;53.538;49.366;2023-03-01T00:33:41;21.85;;;11.77;;
67195;SDS011;54122;53.538;49.366;2023-03-01T00:36:10;27.17;;;10.93;;
67195;SDS011;54122;53.538;49.366;2023-03-01T00:38:38;18.33;;;9.10;;
67195;SDS011;54122;53.538;49.366;2023-03-01T00:41:06;25.90;;;11.77;;
67195;SDS011;54122;53.538;49.366;2023-03-01T00:43:35;21.42;;;9.50;;
67195;SDS011;54122;53.538;49.366;2023-03-01T00:46:03;23.90;;;11.13;;
67195;SDS011;54122;53.538;49.366;2023-03-01T00:48:30;20.08;;;10.18;;
67195;SDS011;54122;53.538;49.366;2023-03-01T00:50:57;22.40;;;11.57;;
67195;SDS011;54122;53.538;49.366;2023-03-01T00:53:31;17.10;;;9.35;;
67195;SDS011;54122;53.538;49.366;2023-03-01T00:55:57;19.50;;;10.73;;
67195;SDS011;54122;53.538;49.366;2023-03-01T00:58:24;19.10;;;10.38;;
67195;SDS011;54122;53.538;49.366;2023-03-01T01:00:50;20.05;;;10.65;;
67195;SDS011;54122;53.538;49.366;2023-03-01T01:03:18;16.35;;;8.48;;
67195;SDS011;54122;53.538;49.366;2023-03-01T01:05:45;17.20;;;7.85;;
67195;SDS011;54122;53.538;49.366;2023-03-01T01:08:12;19.75;;;9.18;;
67195;SDS011;54122;53.538;49.366;2023-03-01T01:10:38;21.92;;;9.50;;
67195;SDS011;54122;53.538;49.366;2023-03-01T01:13:04;18.23;;;8.88;;
67195;SDS011;54122;53.538;49.366;2023-03-01T01:15:34;30.25;;;13.77;;
67195;SDS011;54122;53.538;49.366;2023-03-01T01:18:00;20.65;;;11.40;;
67195;SDS011;54122;53.538;49.366;2023-03-01T01:20:27;19.95;;;9.45;;
67195;SDS011;54122;53.538;49.366;2023-03-01T01:22:53;20.92;;;11.00;;
67195;SDS011;54122;53.538;49.366;2023-03-01T01:25:20;21.58;;;9.85;;
67195;SDS011;54122;53.538;49.366;2023-03-01T01:27:46;21.65;;;11.00;;
67195;SDS011;54122;53.538;49.366;2023-03-01T01:30:13;13.25;;;7.32;;
67195;SDS011;54122;53.538;49.366;2023-03-01T01:32:39;22.45;;;9.63;;
67195;SDS011;54122;53.538;49.366;2023-03-01T01:35:05;32.97;;;10.40;;
67195;SDS011;54122;53.538;49.366;2023-03-01T01:37:32;22.10;;;11.15;;
67195;SDS011;54122;53.538;49.366;2023-03-01T01:39:59;19.92;;;11.07;;
67195;SDS011;54122;53.538;49.366;2023-03-01T01:42:26;21.25;;;8.75;;
67195;SDS011;54122;53.538;49.366;2023-03-01T01:48:03;21.33;;;11.05;;
67195;SDS011;54122;53.538;49.366;2023-03-01T01:50:38;21.55;;;11.30;;
67195;SDS011;54122;53.538;49.366;2023-03-01T01:53:09;19.20;;;9.95;;
67195;SDS011;54122;53.538;49.366;2023-03-01T01:55:40;24.17;;;9.95;;
67195;SDS011;54122;53.538;49.366;2023-03-01T01:58:11;26.55;;;10.90;;
67195;SDS011;54122;53.538;49.366;2023-03-01T02:00:41;21.38;;;11.18;;
67195;SDS011;54122;53.538;49.366;2023-03-01T02:03:11;19.10;;;9.70;;
67195;SDS011;54122;53.538;49.366;2023-03-01T02:08:15;23.67;;;11.35;;
67195;SDS011;54122;53.538;49.366;2023-03-01T02:10:44;22.65;;;9.65;;
67195;SDS011;54122;53.538;49.366;2023-03-01T02:13:12;23.98;;;10.82;;
67195;SDS011;54122;53.538;49.366;2023-03-01T02:15:39;22.08;;;10.82;;
67195;SDS011;54122;53.538;49.366;2023-03-01T02:18:07;20.15;;;10.30;;
67195;SDS011;54122;53.538;49.366;2023-03-01T02:20:51;23.40;;;11.63;;
67195;SDS011;54122;53.538;49.366;2023-03-01T02:26:09;21.33;;;10.13;;
67195;SDS011;54122;53.538;49.366;2023-03-01T02:28:44;17.90;;;9.05;;
67195;SDS011;54122;53.538;49.366;2023-03-01T02:31:11;21.20;;;10.68;;
67195;SDS011;54122;53.538;49.366;2023-03-01T02:34:02;21.48;;;10.73;;
67195;SDS011;54122;53.538;49.366;2023-03-01T02:36:40;16.83;;;8.82;;
67195;SDS011;54122;53.538;49.366;2023-03-01T02:39:22;17.25;;;9.05;;
67195;SDS011;54122;53.538;49.366;2023-03-01T02:41:52;21.10;;;11.00;;
67195;SDS011;54122;53.538;49.366;2023-03-01T02:44:21;20.17;;;10.57;;
67195;SDS011;54122;53.538;49.366;2023-03-01T02:46:52;20.92;;;10.90;;
67195;SDS011;54122;53.538;49.366;2023-03-01T02:49:25;20.73;;;10.23;;
67195;SDS011;54122;53.538;49.366;2023-03-01T02:55:08;23.33;;;9.80;;
67195;SDS011;54122;53.538;49.366;2023-03-01T02:57:37;20.88;;;10.55;;
67195;SDS011;54122;53.538;49.366;2023-03-01T03:00:07;20.38;;;9.55;;
67195;SDS011;54122;53.538;49.366;2023-03-01T03:02:36;21.20;;;9.93;;
67195;SDS011;54122;53.538;49.366;2023-03-01T03:05:03;18.27;;;8.63;;
67195;SDS011;54122;53.538;49.366;2023-03-01T03:07:34;17.02;;;8.45;;
67195;SDS011;54122;53.538;49.366;2023-03-01T03:10:03;23.85;;;11.18;;
67195;SDS011;54122;53.538;49.366;2023-03-01T03:12:31;21.10;;;11.15;;
67195;SDS011;54122;53.538;49.366;2023-03-01T03:14:57;26.02;;;12.13;;
67195;SDS011;54122;53.538;49.366;2023-03-01T03:17:24;21.95;;;10.55;;
67195;SDS011;54122;53.538;49.366;2023-03-01T03:19:50;23.60;;;10.70;;
67195;SDS011;54122;53.538;49.366;2023-03-01T03:22:16;22.27;;;10.77;;
67195;SDS011;54122;53.538;49.366;2023-03-01T03:24:43;26.30;;;12.05;;
67195;SDS011;54122;53.538;49.366;2023-03-01T03:27:09;28.58;;;13.32;;
67195;SDS011;54122;53.538;49.366;2023-03-01T03:29:35;27.25;;;12.23;;
67195;SDS011;54122;53.538;49.366;2023-03-01T03:32:01;22.02;;;10.18;;
67195;SDS011;54122;53.538;49.366;2023-03-01T03:34:28;25.70;;;11.10;;
67195;SDS011;54122;53.538;49.366;2023-03-01T03:36:55;25.92;;;13.07;;
67195;SDS011;54122;53.538;49.366;2023-03-01T03:39:28;23.25;;;11.25;;
67195;SDS011;54122;53.538;49.366;2023-03-01T03:42:00;21.23;;;10.63;;
67195;SDS011;54122;53.538;49.366;2023-03-01T03:44:26;25.38;;;11.05;;
67195;SDS011;54122;53.538;49.366;2023-03-01T03:46:53;20.15;;;10.52;;
67195;SDS011;54122;53.538;49.366;2023-03-01T03:49:19;23.95;;;10.40;;
67195;SDS011;54122;53.538;49.366;2023-03-01T03:51:45;27.08;;;12.45;;
67195;SDS011;54122;53.538;49.366;2023-03-01T03:54:12;29.73;;;12.40;;
67195;SDS011;54122;53.538;49.366;2023-03-01T03:56:38;36.70;;;17.25;;
67195;SDS011;54122;53.538;49.366;2023-03-01T03:59:04;34.70;;;15.43;;
67195;SDS011;54122;53.538;49.366;2023-03-01T04:01:31;40.13;;;19.25;;
67195;SDS011;54122;53.538;49.366;2023-03-01T04:03:57;34.63;;;17.25;;
67195;SDS011;54122;53.538;49.366;2023-03-01T04:06:29;35.83;;;15.85;;
67195;SDS011;54122;53.538;49.366;2023-03-01T04:08:55;32.85;;;14.43;;
67195;SDS011;54122;53.538;49.366;2023-03-01T04:11:23;40.70;;;18.48;;
67195;SDS011;54122;53.538;49.366;2023-03-01T04:13:53;34.58;;;16.83;;
67195;SDS011;54122;53.538;49.366;2023-03-01T04:16:21;34.97;;;13.60;;
67195;SDS011;54122;53.538;49.366;2023-03-01T04:18:49;24.92;;;12.02;;
67195;SDS011;54122;53.538;49.366;2023-03-01T04:21:15;27.67;;;13.30;;
67195;SDS011;54122;53.538;49.366;2023-03-01T04:23:42;24.25;;;11.88;;
67195;SDS011;54122;53.538;49.366;2023-03-01T04:26:08;27.77;;;15.05;;
67195;SDS011;54122;53.538;49.366;2023-03-01T04:28:39;18.05;;;10.02;;
67195;SDS011;54122;53.538;49.366;2023-03-01T04:31:11;19.73;;;11.10;;
67195;SDS011;54122;53.538;49.366;2023-03-01T04:33:41;23.73;;;10.20;;
67195;SDS011;54122;53.538;49.366;2023-03-01T04:36:10;21.02;;;10.68;;
67195;SDS011;54122;53.538;49.366;2023-03-01T04:38:38;25.17;;;12.13;;
67195;SDS011;54122;53.538;49.366;2023-03-01T04:41:06;19.73;;;11.25;;
67195;SDS011;54122;53.538;49.366;2023-03-01T04:43:34;25.42;;;11.30;;
67195;SDS011;54122;53.538;49.366;2023-03-01T04:46:01;19.70;;;10.05;;
67195;SDS011;54122;53.538;49.366;2023-03-01T04:48:31;16.20;;;8.55;;
67195;SDS011;54122;53.538;49.366;2023-03-01T04:50:58;20.63;;;10.80;;
67195;SDS011;54122;53.538;49.366;2023-03-01T04:53:26;18.75;;;9.63;;
67195;SDS011;54122;53.538;49.366;2023-03-01T04:55:53;16.42;;;9.15;;
67195;SDS011;54122;53.538;49.366;2023-03-01T04:58:22;21.17;;;8.30;;
67195;SDS011;54122;53.538;49.366;2023-03-01T05:00:49;13.57;;;7.18;;
67195;SDS011;54122;53.538;49.366;2023-03-01T05:03:16;14.15;;;7.57;;
67195;SDS011;54122;53.538;49.366;2023-03-01T05:05:44;15.90;;;7.35;;
67195;SDS011;54122;53.538;49.366;2023-03-01T05:08:12;13.30;;;6.53;;
67195;SDS011;54122;53.538;49.366;2023-03-01T05:10:43;12.10;;;6.72;;
67195;SDS011;54122;53.538;49.366;2023-03-01T05:13:12;10.43;;;6.80;;
67195;SDS011;54122;53.538;49.366;2023-03-01T05:15:40;15.32;;;8.57;;
67195;SDS011;54122;53.538;49.366;2023-03-01T05:18:06;13.88;;;6.63;;
67195;SDS011;54122;53.538;49.366;2023-03-01T05:20:37;10.38;;;6.57;;
67195;SDS011;54122;53.538;49.366;2023-03-01T05:23:03;13.02;;;7.28;;
67195;SDS011;54122;53.538;49.366;2023-03-01T05:25:31;12.20;;;5.88;;
67195;SDS011;54122;53.538;49.366;2023-03-01T05:28:06;11.02;;;6.28;;
67195;SDS011;54122;53.538;49.366;2023-03-01T05:30:37;15.07;;;5.82;;
67195;SDS011;54122;53.538;49.366;2023-03-01T05:33:06;10.60;;;5.35;;
67195;SDS011;54122;53.538;49.366;2023-03-01T05:35:43;11.70;;;4.93;;
67195;SDS011;54122;53.538;49.366;2023-03-01T05:38:11;10.90;;;5.90;;
67195;SDS011;54122;53.538;49.366;2023-03-01T05:40:45;13.38;;;6.00;;
67195;SDS011;54122;53.538;49.366;2023-03-01T05:43:13;10.90;;;5.82;;
67195;SDS011;54122;53.538;49.366;2023-03-01T05:45:41;9.80;;;5.45;;
67195;SDS011;54122;53.538;49.366;2023-03-01T05:48:09;10.63;;;5.43;;
67195;SDS011;54122;53.538;49.366;2023-03-01T05:50:38;9.10;;;5.22;;
67195;SDS011;54122;53.538;49.366;2023-03-01T05:53:12;9.15;;;5.40;;
67195;SDS011;54122;53.538;49.366;2023-03-01T05:55:40;5.60;;;3.75;;
67195;SDS011;54122;53.538;49.366;2023-03-01T05:58:09;9.60;;;5.03;;
67195;SDS011;54122;53.538;49.366;2023-03-01T06:00:37;8.77;;;5.13;;
67195;SDS011;54122;53.538;49.366;2023-03-01T06:03:03;6.65;;;4.03;;
67195;SDS011;54122;53.538;49.366;2023-03-01T06:05:30;8.18;;;4.68;;
67195;SDS011;54122;53.538;49.366;2023-03-01T06:07:58;8.18;;;4.50;;
67195;SDS011;54122;53.538;49.366;2023-03-01T06:10:25;7.43;;;4.20;;
67195;SDS011;54122;53.538;49.366;2023-03-01T06:12:52;9.40;;;4.32;;
67195;SDS011;54122;53.538;49.366;2023-03-01T06:15:18;8.35;;;4.45;;
67195;SDS011;54122;53.538;49.366;2023-03-01T06:17:45;7.93;;;4.70;;
67195;SDS011;54122;53.538;49.366;2023-03-01T06:20:16;9.45;;;5.07;;
67195;SDS011;54122;53.538;49.366;2023-03-01T06:22:48;10.23;;;4.75;;
67195;SDS011;54122;53.538;49.366;2023-03-01T06:25:20;7.00;;;3.35;;
67195;SDS011;54122;53.538;49.366;2023-03-01T06:27:48;9.93;;;3.65;;
67195;SDS011;54122;53.538;49.366;2023-03-01T06:30:15;7.60;;;4.28;;
67195;SDS011;54122;53.538;49.366;2023-03-01T06:32:43;5.15;;;2.83;;
67195;SDS011;54122;53.538;49.366;2023-03-01T06:35:11;8.23;;;4.13;;
67195;SDS011;54122;53.538;49.366;2023-03-01T06:37:39;7.72;;;4.35;;
67195;SDS011;54122;53.538;49.366;2023-03-01T06:40:07;8.70;;;3.42;;
67195;SDS011;54122;53.538;49.366;2023-03-01T06:42:40;7.47;;;3.78;;
67195;SDS011;54122;53.538;49.366;2023-03-01T06:45:08;8.70;;;4.00;;
67195;SDS011;54122;53.538;49.366;2023-03-01T06:47:35;6.13;;;3.13;;
67195;SDS011;54122;53.538;49.366;2023-03-01T06:50:02;9.63;;;2.65;;
67195;SDS011;54122;53.538;49.366;2023-03-01T06:52:29;13.40;;;2.97;;
67195;SDS011;54122;53.538;49.366;2023-03-01T06:54:55;6.18;;;2.20;;
67195;SDS011;54122;53.538;49.366;2023-03-01T06:57:22;12.05;;;3.13;;
67195;SDS011;54122;53.538;49.366;2023-03-01T06:59:48;15.95;;;2.25;;
67195;SDS011;54122;53.538;49.366;2023-03-01T07:02:15;9.68;;;2.30;;
67195;SDS011;54122;53.538;49.366;2023-03-01T07:04:43;6.78;;;2.00;;
67195;SDS011;54122;53.538;49.366;2023-03-01T07:07:11;5.28;;;1.55;;
67195;SDS011;54122;53.538;49.366;2023-03-01T07:09:37;9.10;;;2.25;;
67195;SDS011;54122;53.538;49.366;2023-03-01T07:12:04;8.65;;;3.03;;
67195;SDS011;54122;53.538;49.366;2023-03-01T07:14:31;13.65;;;3.42;;
67195;SDS011;54122;53.538;49.366;2023-03-01T07:16:58;12.23;;;2.60;;
67195;SDS011;54122;53.538;49.366;2023-03-01T07:19:24;16.10;;;2.72;;
67195;SDS011;54122;53.538;49.366;2023-03-01T07:21:50;7.03;;;2.40;;
67195;SDS011;54122;53.538;49.366;2023-03-01T07:24:17;7.40;;;2.40;;
67195;SDS011;54122;53.538;49.366;2023-03-01T07:26:43;11.30;;;1.67;;
67195;SDS011;54122;53.538;49.366;2023-03-01T07:29:10;6.35;;;1.70;;
67195;SDS011;54122;53.538;49.366;2023-03-01T07:31:36;8.38;;;2.75;;
67195;SDS011;54122;53.538;49.366;2023-03-01T07:34:03;6.07;;;1.40;;
67195;SDS011;54122;53.538;49.366;2023-03-01T07:36:29;6.95;;;2.15;;
67195;SDS011;54122;53.538;49.366;2023-03-01T07:38:55;3.15;;;1.55;;
67195;SDS011;54122;53.538;49.366;2023-03-01T07:41:22;12.45;;;2.63;;
67195;SDS011;54122;53.538;49.366;2023-03-01T07:43:48;10.02;;;2.85;;
67195;SDS011;54122;53.538;49.366;2023-03-01T07:46:14;8.02;;;2.47;;
67195;SDS011;54122;53.538;49.366;2023-03-01T07:48:40;9.65;;;3.35;;
67195;SDS011;54122;53.538;49.366;2023-03-01T07:51:07;11.95;;;3.33;;
67195;SDS011;54122;53.538;49.366;2023-03-01T07:53:33;13.50;;;2.83;;
67195;SDS011;54122;53.538;49.366;2023-03-01T07:56:01;11.45;;;3.13;;
67195;SDS011;54122;53.538;49.366;2023-03-01T07:58:33;16.25;;;3.20;;
67195;SDS011;54122;53.538;49.366;2023-03-01T08:01:04;6.10;;;2.10;;
67195;SDS011;54122;53.538;49.366;2023-03-01T08:03:32;6.13;;;1.50;;
67195;SDS011;54122;53.538;49.366;2023-03-01T08:06:05;7.18;;;1.63;;
67195;SDS011;54122;53.538;49.366;2023-03-01T08:08:33;7.45;;;1.73;;
67195;SDS011;54122;53.538;49.366;2023-03-01T08:11:06;4.45;;;1.15;;
67195;SDS011;54122;53.538;49.366;2023-03-01T08:13:33;4.95;;;1.60;;
67195;SDS011;54122;53.538;49.366;2023-03-01T08:16:00;5.80;;;1.27;;
67195;SDS011;54122;53.538;49.366;2023-03-01T08:18:31;7.13;;;1.97;;
67195;SDS011;54122;53.538;49.366;2023-03-01T08:21:16;5.93;;;1.77;;
67195;SDS011;54122;53.538;49.366;2023-03-01T08:23:43;6.97;;;1.63;;
67195;SDS011;54122;53.538;49.366;2023-03-01T08:26:11;8.15;;;1.27;;
67195;SDS011;54122;53.538;49.366;2023-03-01T08:28:42;6.45;;;1.10;;
67195;SDS011;54122;53.538;49.366;2023-03-01T08:31:30;6.03;;;1.45;;
67195;SDS011;54122;53.538;49.366;2023-03-01T08:33:57;3.17;;;0.90;;
67195;SDS011;54122;53.538;49.366;2023-03-01T08:36:26;2.65;;;0.88;;
67195;SDS011;54122;53.538;49.366;2023-03-01T08:38:54;4.18;;;0.75;;
67195;SDS011;54122;53.538;49.366;2023-03-01T08:41:21;4.60;;;1.40;;
67195;SDS011;54122;53.538;49.366;2023-03-01T08:43:48;3.58;;;1.23;;
67195;SDS011;54122;53.538;49.366;2023-03-01T08:46:14;1.27;;;0.60;;
67195;SDS011;54122;53.538;49.366;2023-03-01T08:48:40;5.95;;;1.00;;
67195;SDS011;54122;53.538;49.366;2023-03-01T08:53:34;4.97;;;0.65;;
67195;SDS011;54122;53.538;49.366;2023-03-01T08:56:01;2.00;;;0.65;;
67195;SDS011;54122;53.538;49.366;2023-03-01T08:58:30;2.45;;;0.70;;
67195;SDS011;54122;53.538;49.366;2023-03-01T09:00:56;1.92;;;0.60;;
67195;SDS011;54122;53.538;49.366;2023-03-01T09:03:23;4.13;;;0.70;;
67195;SDS011;54122;53.538;49.366;2023-03-01T09:05:50;6.80;;;1.08;;
67195;SDS011;54122;53.538;49.366;2023-03-01T09:08:17;5.55;;;0.80;;
67195;SDS011;54122;53.538;49.366;2023-03-01T09:10:44;7.80;;;0.90;;
67195;SDS011;54122;53.538;49.366;2023-03-01T09:13:10;4.22;;;1.00;;
67195;SDS011;54122;53.538;49.366;2023-03-01T09:15:37;4.32;;;1.30;;
67195;SDS011;54122;53.538;49.366;2023-03-01T09:18:04;3.67;;;1.10;;
67195;SDS011;54122;53.538;49.366;2023-03-01T09:20:31;3.42;;;0.90;;
67195;SDS011;54122;53.538;49.366;2023-03-01T09:22:58;6.65;;;1.23;;
67195;SDS011;54122;53.538;49.366;2023-03-01T09:25:24;6.88;;;0.60;;
67195;SDS011;54122;53.538;49.366;2023-03-01T09:27:51;4.88;;;1.38;;
67195;SDS011;54122;53.538;49.366;2023-03-01T09:30:18;4.93;;;1.30;;
67195;SDS011;54122;53.538;49.366;2023-03-01T09:32:45;6.13;;;1.20;;
67195;SDS011;54122;53.538;49.366;2023-03-01T09:35:11;5.47;;;1.40;;
67195;SDS011;54122;53.538;49.366;2023-03-01T09:37:37;2.38;;;0.75;;
67195;SDS011;54122;53.538;49.366;2023-03-01T09:40:11;3.55;;;0.70;;
67195;SDS011;54122;53.538;49.366;2023-03-01T09:43:05;3.92;;;1.13;;
67195;SDS011;54122;53.538;49.366;2023-03-01T09:45:40;4.07;;;1.08;;
67195;SDS011;54122;53.538;49.366;2023-03-01T09:48:12;8.27;;;1.10;;
67195;SDS011;54122;53.538;49.366;2023-03-01T09:50:47;4.15;;;1.05;;
67195;SDS011;54122;53.538;49.366;2023-03-01T09:53:26;4.57;;;1.00;;
67195;SDS011;54122;53.538;49.366;2023-03-01T09:56:05;3.03;;;0.98;;
67195;SDS011;54122;53.538;49.366;2023-03-01T10:09:52;6.13;;;1.48;;
67195;SDS011;54122;53.538;49.366;2023-03-01T10:12:19;9.30;;;1.90;;
67195;SDS011;54122;53.538;49.366;2023-03-01T10:15:06;4.95;;;1.60;;
67195;SDS011;54122;53.538;49.366;2023-03-01T10:20:22;4.78;;;1.13;;
67195;SDS011;54122;53.538;49.366;2023-03-01T10:22:59;5.28;;;0.93;;
67195;SDS011;54122;53.538;49.366;2023-03-01T10:28:33;3.38;;;1.00;;
67195;SDS011;54122;53.538;49.366;2023-03-01T10:31:01;4.32;;;1.17;;
67195;SDS011;54122;53.538;49.366;2023-03-01T10:33:29;4.03;;;1.20;;
67195;SDS011;54122;53.538;49.366;2023-03-01T10:35:58;7.35;;;1.02;;
67195;SDS011;54122;53.538;49.366;2023-03-01T10:38:24;4.65;;;0.98;;
67195;SDS011;54122;53.538;49.366;2023-03-01T10:41:04;3.05;;;0.90;;
67195;SDS011;54122;53.538;49.366;2023-03-01T10:43:54;6.28;;;0.98;;
67195;SDS011;54122;53.538;49.366;2023-03-01T10:46:26;10.02;;;0.80;;
67195;SDS011;54122;53.538;49.366;2023-03-01T10:51:43;5.88;;;0.95;;
67195;SDS011;54122;53.538;49.366;2023-03-01T10:54:22;5.30;;;0.95;;
67195;SDS011;54122;53.538;49.366;2023-03-01T10:56:50;5.45;;;0.70;;
67195;SDS011;54122;53.538;49.366;2023-03-01T10:59:21;3.85;;;0.88;;
67195;SDS011;54122;53.538;49.366;2023-03-01T11:02:15;5.65;;;0.80;;
67195;SDS011;54122;53.538;49.366;2023-03-01T11:07:50;4.35;;;0.60;;
67195;SDS011;54122;53.538;49.366;2023-03-01T11:10:20;9.43;;;1.05;;
67195;SDS011;54122;53.538;49.366;2023-03-01T11:12:51;3.15;;;0.63;;
67195;SDS011;54122;53.538;49.366;2023-03-01T11:15:24;4.53;;;1.08;;
67195;SDS011;54122;53.538;49.366;2023-03-01T11:17:54;4.75;;;0.60;;
67195;SDS011;54122;53.538;49.366;2023-03-01T11:20:32;4.00;;;0.70;;
67195;SDS011;54122;53.538;49.366;2023-03-01T11:23:13;7.38;;;0.90;;
67195;SDS011;54122;53.538;49.366;2023-03-01T11:26:00;3.83;;;0.75;;
67195;SDS011;54122;53.538;49.366;2023-03-01T11:28:30;2.25;;;0.60;;
67195;SDS011;54122;53.538;49.366;2023-03-01T11:36:24;3.72;;;0.52;;
67195;SDS011;54122;53.538;49.366;2023-03-01T11:41:48;5.78;;;1.00;;
67195;SDS011;54122;53.538;49.366;2023-03-01T11:44:25;5.30;;;0.90;;
67195;SDS011;54122;53.538;49.366;2023-03-01T11:47:04;3.25;;;0.93;;
67195;SDS011;54122;53.538;49.366;2023-03-01T11:50:02;2.90;;;0.60;;
67195;SDS011;54122;53.538;49.366;2023-03-01T12:01:09;7.00;;;1.58;;
67195;SDS011;54122;53.538;49.366;2023-03-01T12:25:46;5.07;;;1.10;;
67195;SDS011;54122;53.538;49.366;2023-03-01T12:36:49;6.47;;;0.82;;
67195;SDS011;54122;53.538;49.366;2023-03-01T12:47:48;1.65;;;0.50;;
67195;SDS011;54122;53.538;49.366;2023-03-01T12:50:27;5.15;;;0.80;;
67195;SDS011;54122;53.538;49.366;2023-03-01T12:53:03;7.63;;;1.05;;
67195;SDS011;54122;53.538;49.366;2023-03-01T12:55:34;6.00;;;1.30;;
67195;SDS011;54122;53.538;49.366;2023-03-01T13:09:12;5.28;;;0.65;;
67195;SDS011;54122;53.538;49.366;2023-03-01T13:11:43;7.97;;;0.90;;
67195;SDS011;54122;53.538;49.366;2023-03-01T13:16:49;5.35;;;0.82;;
67195;SDS011;54122;53.538;49.366;2023-03-01T13:19:23;2.83;;;0.60;;
67195;SDS011;54122;53.538;49.366;2023-03-01T13:21:53;2.80;;;0.55;;
67195;SDS011;54122;53.538;49.366;2023-03-01T13:32:29;15.50;;;2.30;;
67195;SDS011;54122;53.538;49.366;2023-03-01T13:37:27;22.45;;;4.45;;
67195;SDS011;54122;53.538;49.366;2023-03-01T13:40:03;18.35;;;3.72;;
67195;SDS011;54122;53.538;49.366;2023-03-01T13:42:44;28.67;;;3.17;;
67195;SDS011;54122;53.538;49.366;2023-03-01T13:48:09;22.27;;;4.60;;
67195;SDS011;54122;53.538;49.366;2023-03-01T13:51:00;23.50;;;3.60;;
67195;SDS011;54122;53.538;49.366;2023-03-01T13:53:30;9.85;;;1.67;;
67195;SDS011;54122;53.538;49.366;2023-03-01T13:56:02;12.15;;;1.80;;
67195;SDS011;54122;53.538;49.366;2023-03-01T13:58:33;6.22;;;0.73;;
67195;SDS011;54122;53.538;49.366;2023-03-01T14:07:11;6.97;;;1.92;;
67195;SDS011;54122;53.538;49.366;2023-03-01T14:09:51;8.82;;;1.45;;
67195;SDS011;54122;53.538;49.366;2023-03-01T14:12:36;6.38;;;1.23;;
67195;SDS011;54122;53.538;49.366;2023-03-01T14:21:07;16.52;;;2.38;;
67195;SDS011;54122;53.538;49.366;2023-03-01T14:23:34;10.15;;;2.42;;
67195;SDS011;54122;53.538;49.366;2023-03-01T14:26:07;14.60;;;3.78;;
67195;SDS011;54122;53.538;49.366;2023-03-01T14:28:37;12.88;;;3.40;;
67195;SDS011;54122;53.538;49.366;2023-03-01T14:33:56;5.13;;;1.33;;
67195;SDS011;54122;53.538;49.366;2023-03-01T14:36:28;4.93;;;1.17;;
67195;SDS011;54122;53.538;49.366;2023-03-01T14:41:34;7.13;;;1.60;;
67195;SDS011;54122;53.538;49.366;2023-03-01T14:44:03;8.85;;;1.80;;
67195;SDS011;54122;53.538;49.366;2023-03-01T14:46:34;12.18;;;2.40;;
67195;SDS011;54122;53.538;49.366;2023-03-01T14:51:39;5.93;;;1.00;;
67195;SDS011;54122;53.538;49.366;2023-03-01T14:54:26;5.50;;;1.23;;
67195;SDS011;54122;53.538;49.366;2023-03-01T14:56:58;5.00;;;1.02;;
67195;SDS011;54122;53.538;49.366;2023-03-01T14:59:26;7.47;;;1.17;;
67195;SDS011;54122;53.538;49.366;2023-03-01T15:01:53;7.05;;;1.08;;
67195;SDS011;54122;53.538;49.366;2023-03-01T15:04:23;5.85;;;1.40;;
67195;SDS011;54122;53.538;49.366;2023-03-01T15:06:52;8.45;;;1.75;;
67195;SDS011;54122;53.538;49.366;2023-03-01T15:09:20;11.00;;;1.60;;
67195;SDS011;54122;53.538;49.366;2023-03-01T15:11:48;12.48;;;1.52;;
67195;SDS011;54122;53.538;49.366;2023-03-01T15:17:20;5.97;;;1.20;;
67195;SDS011;54122;53.538;49.366;2023-03-01T15:19:58;7.28;;;1.45;;
67195;SDS011;54122;53.538;49.366;2023-03-01T15:22:25;8.30;;;1.80;;
67195;SDS011;54122;53.538;49.366;2023-03-01T15:24:52;9.93;;;1.92;;
67195;SDS011;54122;53.538;49.366;2023-03-01T15:27:20;11.48;;;2.50;;
67195;SDS011;54122;53.538;49.366;2023-03-01T15:29:50;17.00;;;3.45;;
67195;SDS011;54122;53.538;49.366;2023-03-01T15:32:33;13.60;;;4.18;;
67195;SDS011;54122;53.538;49.366;2023-03-01T15:40:52;5.90;;;1.45;;
67195;SDS011;54122;53.538;49.366;2023-03-01T15:46:04;7.05;;;1.08;;
67195;SDS011;54122;53.538;49.366;2023-03-01T15:48:31;5.35;;;0.43;;
67195;SDS011;54122;53.538;49.366;2023-03-01T15:50:58;5.43;;;0.60;;
67195;SDS011;54122;53.538;49.366;2023-03-01T15:53:25;7.13;;;1.17;;
67195;SDS011;54122;53.538;49.366;2023-03-01T15:55:53;6.15;;;0.82;;
67195;SDS011;54122;53.538;49.366;2023-03-01T15:58:23;2.90;;;0.70;;
67195;SDS011;54122;53.538;49.366;2023-03-01T16:00:51;2.60;;;0.70;;
67195;SDS011;54122;53.538;49.366;2023-03-01T16:03:21;6.22;;;0.90;;
67195;SDS011;54122;53.538;49.366;2023-03-01T16:05:49;5.30;;;1.02;;
67195;SDS011;54122;53.538;49.366;2023-03-01T16:08:15;7.10;;;1.13;;
67195;SDS011;54122;53.538;49.366;2023-03-01T16:10:43;4.28;;;0.85;;
67195;SDS011;54122;53.538;49.366;2023-03-01T16:13:10;3.97;;;1.33;;
67195;SDS011;54122;53.538;49.366;2023-03-01T16:15:38;4.00;;;0.60;;
67195;SDS011;54122;53.538;49.366;2023-03-01T16:18:05;4.82;;;1.08;;
67195;SDS011;54122;53.538;49.366;2023-03-01T16:20:33;7.75;;;1.35;;
67195;SDS011;54122;53.538;49.366;2023-03-01T16:23:00;6.55;;;1.52;;
67195;SDS011;54122;53.538;49.366;2023-03-01T16:25:29;8.32;;;1.23;;
67195;SDS011;54122;53.538;49.366;2023-03-01T16:27:56;8.57;;;1.48;;
67195;SDS011;54122;53.538;49.366;2023-03-01T16:30:25;7.72;;;1.45;;
67195;SDS011;54122;53.538;49.366;2023-03-01T16:32:52;3.60;;;0.82;;
67195;SDS011;54122;53.538;49.366;2023-03-01T16:35:19;4.65;;;1.17;;
67195;SDS011;54122;53.538;49.366;2023-03-01T16:37:46;7.45;;;1.00;;
67195;SDS011;54122;53.538;49.366;2023-03-01T16:40:32;5.60;;;0.90;;
67195;SDS011;54122;53.538;49.366;2023-03-01T16:42:58;5.15;;;0.80;;
67195;SDS011;54122;53.538;49.366;2023-03-01T16:45:34;4.10;;;1.05;;
67195;SDS011;54122;53.538;49.366;2023-03-01T16:48:01;6.38;;;1.35;;
67195;SDS011;54122;53.538;49.366;2023-03-01T16:50:28;5.32;;;0.90;;
67195;SDS011;54122;53.538;49.366;2023-03-01T16:52:54;7.50;;;1.00;;
67195;SDS011;54122;53.538;49.366;2023-03-01T16:55:21;4.97;;;1.05;;
67195;SDS011;54122;53.538;49.366;2023-03-01T16:57:47;9.07;;;1.00;;
67195;SDS011;54122;53.538;49.366;2023-03-01T17:00:13;3.40;;;0.63;;
67195;SDS011;54122;53.538;49.366;2023-03-01T17:02:40;5.57;;;0.98;;
67195;SDS011;54122;53.538;49.366;2023-03-01T17:05:07;12.50;;;1.55;;
67195;SDS011;54122;53.538;49.366;2023-03-01T17:07:35;4.25;;;0.93;;
67195;SDS011;54122;53.538;49.366;2023-03-01T17:10:02;7.05;;;1.15;;
67195;SDS011;54122;53.538;49.366;2023-03-01T17:12:31;7.85;;;1.20;;